sensor_id;sensor_type;location;lat;lon;timestamp;temperature;humidity
3334;DHT22;1679;50.392;8.008;2022-10-31T00:02:23;10.70;99.90
3334;DHT22;1679;50.392;8.008;2022-10-31T00:04:48;10.80;99.90
3334;DHT22;1679;50.392;8.008;2022-10-31T00:07:14;10.70;99.90
3334;DHT22;1679;50.392;8.008;2022-10-31T00:09:39;10.60;99.90
3334;DHT22;1679;50.392;8.008;2022-10-31T00:12:05;10.60;99.90
3334;DHT22;1679;50.392;8.008;2022-10-31T00:14:30;10.60;99.90
3334;DHT22;1679;50.392;8.008;2022-10-31T00:16:56;10.60;99.90
3334;DHT22;1679;50.392;8.008;2022-10-31T00:19:21;10.50;99.90
3334;DHT22;1679;50.392;8.008;2022-10-31T00:21:47;10.50;99.90
3334;DHT22;1679;50.392;8.008;2022-10-31T00:24:13;10.40;99.90
3334;DHT22;1679;50.392;8.008;2022-10-31T00:26:38;10.40;99.90
3334;DHT22;1679;50.392;8.008;2022-10-31T00:29:04;10.30;99.90
3334;DHT22;1679;50.392;8.008;2022-10-31T00:31:29;10.30;99.90
3334;DHT22;1679;50.392;8.008;2022-10-31T00:33:56;10.30;99.90
3334;DHT22;1679;50.392;8.008;2022-10-31T00:36:23;10.30;99.90
3334;DHT22;1679;50.392;8.008;2022-10-31T00:38:49;10.20;99.90
3334;DHT22;1679;50.392;8.008;2022-10-31T00:41:16;10.10;99.90
3334;DHT22;1679;50.392;8.008;2022-10-31T00:43:43;10.10;99.90
3334;DHT22;1679;50.392;8.008;2022-10-31T00:46:09;10.10;99.90
3334;DHT22;1679;50.392;8.008;2022-10-31T00:48:35;10.10;99.90
3334;DHT22;1679;50.392;8.008;2022-10-31T00:51:00;10.10;99.90
3334;DHT22;1679;50.392;8.008;2022-10-31T00:53:26;10.10;99.90
3334;DHT22;1679;50.392;8.008;2022-10-31T00:55:52;10.10;99.90
3334;DHT22;1679;50.392;8.008;2022-10-31T00:58:18;10.10;99.90
3334;DHT22;1679;50.392;8.008;2022-10-31T01:00:44;10.20;99.90
3334;DHT22;1679;50.392;8.008;2022-10-31T01:03:12;10.20;99.90
3334;DHT22;1679;50.392;8.008;2022-10-31T01:05:39;10.10;99.90
3334;DHT22;1679;50.392;8.008;2022-10-31T01:08:04;10.20;99.90
3334;DHT22;1679;50.392;8.008;2022-10-31T01:10:30;10.20;99.90
3334;DHT22;1679;50.392;8.008;2022-10-31T01:12:55;10.20;99.90
3334;DHT22;1679;50.392;8.008;2022-10-31T01:15:22;10.20;99.90
3334;DHT22;1679;50.392;8.008;2022-10-31T01:17:48;10.10;99.90
3334;DHT22;1679;50.392;8.008;2022-10-31T01:20:14;10.10;99.90
3334;DHT22;1679;50.392;8.008;2022-10-31T01:22:42;10.10;99.90
3334;DHT22;1679;50.392;8.008;2022-10-31T01:25:08;10.10;99.90
3334;DHT22;1679;50.392;8.008;2022-10-31T01:27:34;10.10;99.90
3334;DHT22;1679;50.392;8.008;2022-10-31T01:29:59;10.10;99.90
3334;DHT22;1679;50.392;8.008;2022-10-31T01:32:26;10.10;99.90
3334;DHT22;1679;50.392;8.008;2022-10-31T01:34:54;10.20;99.90
3334;DHT22;1679;50.392;8.008;2022-10-31T01:37:19;10.20;99.90
3334;DHT22;1679;50.392;8.008;2022-10-31T01:39:45;10.20;99.90
3334;DHT22;1679;50.392;8.008;2022-10-31T01:42:18;10.30;99.90
3334;DHT22;1679;50.392;8.008;2022-10-31T01:44:51;10.30;99.90
3334;DHT22;1679;50.392;8.008;2022-10-31T01:47:21;10.20;99.90
3334;DHT22;1679;50.392;8.008;2022-10-31T01:49:57;10.20;99.90
3334;DHT22;1679;50.392;8.008;2022-10-31T01:52:32;10.20;99.90
3334;DHT22;1679;50.392;8.008;2022-10-31T01:55:02;10.20;99.90
3334;DHT22;1679;50.392;8.008;2022-10-31T01:57:29;10.20;99.90
3334;DHT22;1679;50.392;8.008;2022-10-31T01:59:58;10.20;99.90
3334;DHT22;1679;50.392;8.008;2022-10-31T02:02:26;10.20;99.90
3334;DHT22;1679;50.392;8.008;2022-10-31T02:04:53;10.20;99.90
3334;DHT22;1679;50.392;8.008;2022-10-31T02:08:10;10.20;99.90
3334;DHT22;1679;50.392;8.008;2022-10-31T02:10:15;10.20;99.90
3334;DHT22;1679;50.392;8.008;2022-10-31T02:12:42;10.20;99.90
3334;DHT22;1679;50.392;8.008;2022-10-31T02:15:08;10.20;99.90
3334;DHT22;1679;50.392;8.008;2022-10-31T02:17:34;10.20;99.90
3334;DHT22;1679;50.392;8.008;2022-10-31T02:22:40;10.20;99.90
3334;DHT22;1679;50.392;8.008;2022-10-31T02:33:46;10.20;99.90
3334;DHT22;1679;50.392;8.008;2022-10-31T02:39:18;10.30;99.90
3334;DHT22;1679;50.392;8.008;2022-10-31T02:42:09;10.20;99.90
3334;DHT22;1679;50.392;8.008;2022-10-31T02:45:00;10.20;99.90
3334;DHT22;1679;50.392;8.008;2022-10-31T02:47:28;10.20;99.90
3334;DHT22;1679;50.392;8.008;2022-10-31T02:50:01;10.20;99.90
3334;DHT22;1679;50.392;8.008;2022-10-31T02:52:30;10.10;99.90
3334;DHT22;1679;50.392;8.008;2022-10-31T02:54:56;10.10;99.90
3334;DHT22;1679;50.392;8.008;2022-10-31T02:57:28;10.10;99.90
3334;DHT22;1679;50.392;8.008;2022-10-31T03:00:00;10.10;99.90
3334;DHT22;1679;50.392;8.008;2022-10-31T03:02:50;10.10;99.90
3334;DHT22;1679;50.392;8.008;2022-10-31T03:05:21;10.00;99.90
3334;DHT22;1679;50.392;8.008;2022-10-31T03:08:12;10.00;99.90
3334;DHT22;1679;50.392;8.008;2022-10-31T03:10:51;10.00;99.90
3334;DHT22;1679;50.392;8.008;2022-10-31T03:18:40;10.00;99.90
3334;DHT22;1679;50.392;8.008;2022-10-31T03:21:16;9.90;99.90
3334;DHT22;1679;50.392;8.008;2022-10-31T03:23:46;9.90;99.90
3334;DHT22;1679;50.392;8.008;2022-10-31T03:26:15;9.90;99.90
3334;DHT22;1679;50.392;8.008;2022-10-31T03:28:57;9.90;99.90
3334;DHT22;1679;50.392;8.008;2022-10-31T03:31:29;9.90;99.90
3334;DHT22;1679;50.392;8.008;2022-10-31T03:33:56;9.90;99.90
3334;DHT22;1679;50.392;8.008;2022-10-31T03:36:24;9.80;99.90
3334;DHT22;1679;50.392;8.008;2022-10-31T03:38:52;9.80;99.90
3334;DHT22;1679;50.392;8.008;2022-10-31T03:41:22;9.80;99.90
3334;DHT22;1679;50.392;8.008;2022-10-31T03:44:04;9.80;99.90
3334;DHT22;1679;50.392;8.008;2022-10-31T03:46:31;9.80;99.90
3334;DHT22;1679;50.392;8.008;2022-10-31T03:48:58;9.90;99.90
3334;DHT22;1679;50.392;8.008;2022-10-31T03:54:56;9.80;99.90
3334;DHT22;1679;50.392;8.008;2022-10-31T03:59:51;9.80;99.90
3334;DHT22;1679;50.392;8.008;2022-10-31T04:02:22;9.80;99.90
3334;DHT22;1679;50.392;8.008;2022-10-31T04:04:50;9.70;99.90
3334;DHT22;1679;50.392;8.008;2022-10-31T04:07:18;9.70;99.90
3334;DHT22;1679;50.392;8.008;2022-10-31T04:09:46;9.60;99.90
3334;DHT22;1679;50.392;8.008;2022-10-31T04:12:15;9.60;99.90
3334;DHT22;1679;50.392;8.008;2022-10-31T04:14:42;9.50;99.90
3334;DHT22;1679;50.392;8.008;2022-10-31T04:17:13;9.50;99.90
3334;DHT22;1679;50.392;8.008;2022-10-31T04:19:39;9.50;99.90
3334;DHT22;1679;50.392;8.008;2022-10-31T04:22:05;9.50;99.90
3334;DHT22;1679;50.392;8.008;2022-10-31T04:24:30;9.40;99.90
3334;DHT22;1679;50.392;8.008;2022-10-31T04:26:56;9.40;99.90
3334;DHT22;1679;50.392;8.008;2022-10-31T04:29:23;9.40;99.90
3334;DHT22;1679;50.392;8.008;2022-10-31T04:31:48;9.30;99.90
3334;DHT22;1679;50.392;8.008;2022-10-31T04:34:14;9.20;99.90
3334;DHT22;1679;50.392;8.008;2022-10-31T04:36:39;9.30;99.90
3334;DHT22;1679;50.392;8.008;2022-10-31T04:39:05;9.30;99.90
3334;DHT22;1679;50.392;8.008;2022-10-31T04:41:30;9.30;99.90
3334;DHT22;1679;50.392;8.008;2022-10-31T04:43:56;9.20;99.90
3334;DHT22;1679;50.392;8.008;2022-10-31T04:46:21;9.30;99.90
3334;DHT22;1679;50.392;8.008;2022-10-31T04:48:47;9.30;99.90
3334;DHT22;1679;50.392;8.008;2022-10-31T04:51:12;9.30;99.90
3334;DHT22;1679;50.392;8.008;2022-10-31T04:53:38;9.30;99.90
3334;DHT22;1679;50.392;8.008;2022-10-31T04:56:04;9.30;99.90
3334;DHT22;1679;50.392;8.008;2022-10-31T04:58:29;9.30;99.90
3334;DHT22;1679;50.392;8.008;2022-10-31T05:00:55;9.30;99.90
3334;DHT22;1679;50.392;8.008;2022-10-31T05:03:21;9.30;99.90
3334;DHT22;1679;50.392;8.008;2022-10-31T05:05:47;9.30;99.90
3334;DHT22;1679;50.392;8.008;2022-10-31T05:08:13;9.30;99.90
3334;DHT22;1679;50.392;8.008;2022-10-31T05:10:39;9.30;99.90
3334;DHT22;1679;50.392;8.008;2022-10-31T05:13:05;9.30;99.90
3334;DHT22;1679;50.392;8.008;2022-10-31T05:15:31;9.20;99.90
3334;DHT22;1679;50.392;8.008;2022-10-31T05:17:58;9.10;99.90
3334;DHT22;1679;50.392;8.008;2022-10-31T05:20:26;9.10;99.90
3334;DHT22;1679;50.392;8.008;2022-10-31T05:22:53;9.10;99.90
3334;DHT22;1679;50.392;8.008;2022-10-31T05:25:21;9.00;99.90
3334;DHT22;1679;50.392;8.008;2022-10-31T05:27:48;9.00;99.90
3334;DHT22;1679;50.392;8.008;2022-10-31T05:30:17;9.10;99.90
3334;DHT22;1679;50.392;8.008;2022-10-31T05:32:44;9.10;99.90
3334;DHT22;1679;50.392;8.008;2022-10-31T05:35:20;9.10;99.90
3334;DHT22;1679;50.392;8.008;2022-10-31T05:37:46;9.10;99.90
3334;DHT22;1679;50.392;8.008;2022-10-31T05:40:13;9.10;99.90
3334;DHT22;1679;50.392;8.008;2022-10-31T05:42:39;9.10;99.90
3334;DHT22;1679;50.392;8.008;2022-10-31T05:45:11;9.10;99.90
3334;DHT22;1679;50.392;8.008;2022-10-31T05:47:38;9.10;99.90
3334;DHT22;1679;50.392;8.008;2022-10-31T05:50:05;9.30;99.90
3334;DHT22;1679;50.392;8.008;2022-10-31T05:52:31;9.20;99.90
3334;DHT22;1679;50.392;8.008;2022-10-31T05:54:56;9.10;99.90
3334;DHT22;1679;50.392;8.008;2022-10-31T05:57:22;9.10;99.90
3334;DHT22;1679;50.392;8.008;2022-10-31T05:59:47;9.10;99.90
3334;DHT22;1679;50.392;8.008;2022-10-31T06:02:13;9.10;99.90
3334;DHT22;1679;50.392;8.008;2022-10-31T06:04:38;9.10;99.90
3334;DHT22;1679;50.392;8.008;2022-10-31T06:07:04;9.10;99.90
3334;DHT22;1679;50.392;8.008;2022-10-31T06:09:29;9.10;99.90
3334;DHT22;1679;50.392;8.008;2022-10-31T06:11:55;9.10;99.90
3334;DHT22;1679;50.392;8.008;2022-10-31T06:14:20;9.00;99.90
3334;DHT22;1679;50.392;8.008;2022-10-31T06:16:46;8.90;99.90
3334;DHT22;1679;50.392;8.008;2022-10-31T06:19:11;8.90;99.90
3334;DHT22;1679;50.392;8.008;2022-10-31T06:21:39;9.00;99.90
3334;DHT22;1679;50.392;8.008;2022-10-31T06:24:05;9.10;99.90
3334;DHT22;1679;50.392;8.008;2022-10-31T06:26:30;9.00;99.90
3334;DHT22;1679;50.392;8.008;2022-10-31T06:28:57;8.90;99.90
3334;DHT22;1679;50.392;8.008;2022-10-31T06:31:23;8.90;99.90
3334;DHT22;1679;50.392;8.008;2022-10-31T06:33:48;8.90;99.90
3334;DHT22;1679;50.392;8.008;2022-10-31T06:36:14;8.90;99.90
3334;DHT22;1679;50.392;8.008;2022-10-31T06:38:39;8.90;99.90
3334;DHT22;1679;50.392;8.008;2022-10-31T06:41:05;9.00;99.90
3334;DHT22;1679;50.392;8.008;2022-10-31T06:43:31;9.10;99.90
3334;DHT22;1679;50.392;8.008;2022-10-31T06:46:01;9.10;99.90
3334;DHT22;1679;50.392;8.008;2022-10-31T06:48:27;9.10;99.90
3334;DHT22;1679;50.392;8.008;2022-10-31T06:50:52;9.10;99.90
3334;DHT22;1679;50.392;8.008;2022-10-31T06:53:18;9.20;99.90
3334;DHT22;1679;50.392;8.008;2022-10-31T06:55:44;9.20;99.90
3334;DHT22;1679;50.392;8.008;2022-10-31T06:58:11;9.20;99.90
3334;DHT22;1679;50.392;8.008;2022-10-31T07:00:37;9.30;99.90
3334;DHT22;1679;50.392;8.008;2022-10-31T07:03:10;9.30;99.90
3334;DHT22;1679;50.392;8.008;2022-10-31T07:05:36;9.30;99.90
3334;DHT22;1679;50.392;8.008;2022-10-31T07:08:06;9.30;99.90
3334;DHT22;1679;50.392;8.008;2022-10-31T07:10:33;9.30;99.90
3334;DHT22;1679;50.392;8.008;2022-10-31T07:13:00;9.40;99.90
3334;DHT22;1679;50.392;8.008;2022-10-31T07:15:28;9.40;99.90
3334;DHT22;1679;50.392;8.008;2022-10-31T07:17:54;9.50;99.90
3334;DHT22;1679;50.392;8.008;2022-10-31T07:20:19;9.50;99.90
3334;DHT22;1679;50.392;8.008;2022-10-31T07:22:45;9.50;99.90
3334;DHT22;1679;50.392;8.008;2022-10-31T07:25:11;9.60;99.90
3334;DHT22;1679;50.392;8.008;2022-10-31T07:27:38;9.50;99.90
3334;DHT22;1679;50.392;8.008;2022-10-31T07:30:04;9.60;99.90
3334;DHT22;1679;50.392;8.008;2022-10-31T07:32:44;9.60;99.90
3334;DHT22;1679;50.392;8.008;2022-10-31T07:35:12;9.70;99.90
3334;DHT22;1679;50.392;8.008;2022-10-31T07:37:38;9.70;99.90
3334;DHT22;1679;50.392;8.008;2022-10-31T07:40:06;9.80;99.90
3334;DHT22;1679;50.392;8.008;2022-10-31T07:42:51;9.90;99.90
3334;DHT22;1679;50.392;8.008;2022-10-31T07:45:19;9.90;99.90
3334;DHT22;1679;50.392;8.008;2022-10-31T07:47:52;10.00;99.90
3334;DHT22;1679;50.392;8.008;2022-10-31T07:50:25;10.10;99.90
3334;DHT22;1679;50.392;8.008;2022-10-31T07:53:02;10.20;99.90
3334;DHT22;1679;50.392;8.008;2022-10-31T07:55:29;10.30;99.90
3334;DHT22;1679;50.392;8.008;2022-10-31T07:58:19;10.30;99.90
3334;DHT22;1679;50.392;8.008;2022-10-31T08:00:45;10.40;99.90
3334;DHT22;1679;50.392;8.008;2022-10-31T08:03:13;10.50;99.90
3334;DHT22;1679;50.392;8.008;2022-10-31T08:05:42;10.60;99.90
3334;DHT22;1679;50.392;8.008;2022-10-31T08:08:10;10.70;99.90
3334;DHT22;1679;50.392;8.008;2022-10-31T08:10:36;10.70;99.90
3334;DHT22;1679;50.392;8.008;2022-10-31T08:13:07;10.70;99.90
3334;DHT22;1679;50.392;8.008;2022-10-31T08:15:34;10.80;99.90
3334;DHT22;1679;50.392;8.008;2022-10-31T08:18:04;10.90;99.90
3334;DHT22;1679;50.392;8.008;2022-10-31T08:20:29;10.90;99.90
3334;DHT22;1679;50.392;8.008;2022-10-31T08:23:00;11.00;99.90
3334;DHT22;1679;50.392;8.008;2022-10-31T08:25:29;11.00;99.90
3334;DHT22;1679;50.392;8.008;2022-10-31T08:27:55;11.10;99.90
3334;DHT22;1679;50.392;8.008;2022-10-31T08:30:23;11.20;99.90
3334;DHT22;1679;50.392;8.008;2022-10-31T08:32:58;11.30;99.90
3334;DHT22;1679;50.392;8.008;2022-10-31T08:35:24;11.30;99.90
3334;DHT22;1679;50.392;8.008;2022-10-31T08:37:53;11.30;99.90
3334;DHT22;1679;50.392;8.008;2022-10-31T08:40:21;11.40;99.90
3334;DHT22;1679;50.392;8.008;2022-10-31T08:42:47;11.50;99.90
3334;DHT22;1679;50.392;8.008;2022-10-31T08:45:12;11.60;99.90
3334;DHT22;1679;50.392;8.008;2022-10-31T08:47:38;11.70;99.90
3334;DHT22;1679;50.392;8.008;2022-10-31T08:50:04;11.70;99.90
3334;DHT22;1679;50.392;8.008;2022-10-31T08:52:29;11.90;99.90
3334;DHT22;1679;50.392;8.008;2022-10-31T08:54:55;12.00;99.90
3334;DHT22;1679;50.392;8.008;2022-10-31T08:57:20;12.10;99.90
3334;DHT22;1679;50.392;8.008;2022-10-31T08:59:45;12.20;99.90
3334;DHT22;1679;50.392;8.008;2022-10-31T09:02:11;12.30;99.90
3334;DHT22;1679;50.392;8.008;2022-10-31T09:04:36;12.20;99.90
3334;DHT22;1679;50.392;8.008;2022-10-31T09:07:02;12.30;99.90
3334;DHT22;1679;50.392;8.008;2022-10-31T09:09:28;12.40;99.90
3334;DHT22;1679;50.392;8.008;2022-10-31T09:11:54;12.40;99.90
3334;DHT22;1679;50.392;8.008;2022-10-31T09:14:20;12.40;99.90
3334;DHT22;1679;50.392;8.008;2022-10-31T09:16:45;12.60;99.90
3334;DHT22;1679;50.392;8.008;2022-10-31T09:19:11;12.70;99.90
3334;DHT22;1679;50.392;8.008;2022-10-31T09:21:36;12.80;99.90
3334;DHT22;1679;50.392;8.008;2022-10-31T09:24:02;12.80;99.90
3334;DHT22;1679;50.392;8.008;2022-10-31T09:26:27;13.00;99.90
3334;DHT22;1679;50.392;8.008;2022-10-31T09:28:53;13.00;99.90
3334;DHT22;1679;50.392;8.008;2022-10-31T09:31:18;13.20;99.90
3334;DHT22;1679;50.392;8.008;2022-10-31T09:33:44;13.20;99.90
3334;DHT22;1679;50.392;8.008;2022-10-31T09:36:10;13.20;99.90
3334;DHT22;1679;50.392;8.008;2022-10-31T09:38:35;13.20;99.90
3334;DHT22;1679;50.392;8.008;2022-10-31T09:41:15;13.10;99.90
3334;DHT22;1679;50.392;8.008;2022-10-31T09:43:50;13.10;99.90
3334;DHT22;1679;50.392;8.008;2022-10-31T09:46:33;13.10;99.90
3334;DHT22;1679;50.392;8.008;2022-10-31T09:51:57;13.30;99.90
3334;DHT22;1679;50.392;8.008;2022-10-31T09:54:32;13.40;99.90
3334;DHT22;1679;50.392;8.008;2022-10-31T09:56:59;13.60;99.90
3334;DHT22;1679;50.392;8.008;2022-10-31T09:59:33;13.70;99.90
3334;DHT22;1679;50.392;8.008;2022-10-31T10:02:04;13.70;99.90
3334;DHT22;1679;50.392;8.008;2022-10-31T10:05:00;13.70;99.90
3334;DHT22;1679;50.392;8.008;2022-10-31T10:07:39;13.70;99.90
3334;DHT22;1679;50.392;8.008;2022-10-31T10:10:15;13.60;99.90
3334;DHT22;1679;50.392;8.008;2022-10-31T10:16:00;13.70;99.90
3334;DHT22;1679;50.392;8.008;2022-10-31T10:18:50;13.70;99.90
3334;DHT22;1679;50.392;8.008;2022-10-31T10:21:31;13.70;99.90
3334;DHT22;1679;50.392;8.008;2022-10-31T10:29:49;13.70;99.90
3334;DHT22;1679;50.392;8.008;2022-10-31T10:32:24;13.70;99.90
3334;DHT22;1679;50.392;8.008;2022-10-31T10:37:42;13.70;99.90
3334;DHT22;1679;50.392;8.008;2022-10-31T10:40:27;13.70;99.90
3334;DHT22;1679;50.392;8.008;2022-10-31T10:43:01;13.80;99.90
3334;DHT22;1679;50.392;8.008;2022-10-31T10:46:29;13.80;99.90
3334;DHT22;1679;50.392;8.008;2022-10-31T10:49:38;13.90;99.90
3334;DHT22;1679;50.392;8.008;2022-10-31T10:54:49;14.10;99.90
3334;DHT22;1679;50.392;8.008;2022-10-31T10:57:27;14.10;99.90
3334;DHT22;1679;50.392;8.008;2022-10-31T11:00:00;14.10;99.90
3334;DHT22;1679;50.392;8.008;2022-10-31T11:02:31;14.20;99.90
3334;DHT22;1679;50.392;8.008;2022-10-31T11:04:58;14.40;99.90
3334;DHT22;1679;50.392;8.008;2022-10-31T11:07:37;14.30;99.90
3334;DHT22;1679;50.392;8.008;2022-10-31T11:10:04;14.30;99.90
3334;DHT22;1679;50.392;8.008;2022-10-31T11:12:32;14.40;99.90
3334;DHT22;1679;50.392;8.008;2022-10-31T11:15:06;14.40;99.90
3334;DHT22;1679;50.392;8.008;2022-10-31T11:17:36;14.60;99.90
3334;DHT22;1679;50.392;8.008;2022-10-31T11:20:29;14.70;99.90
3334;DHT22;1679;50.392;8.008;2022-10-31T11:23:02;14.80;99.90
3334;DHT22;1679;50.392;8.008;2022-10-31T11:25:28;14.80;99.90
3334;DHT22;1679;50.392;8.008;2022-10-31T11:28:05;14.90;99.90
3334;DHT22;1679;50.392;8.008;2022-10-31T11:30:42;14.90;99.90
3334;DHT22;1679;50.392;8.008;2022-10-31T11:33:27;14.90;99.90
3334;DHT22;1679;50.392;8.008;2022-10-31T11:35:55;14.70;99.90
3334;DHT22;1679;50.392;8.008;2022-10-31T11:38:29;14.60;99.90
3334;DHT22;1679;50.392;8.008;2022-10-31T11:41:11;14.60;99.90
3334;DHT22;1679;50.392;8.008;2022-10-31T11:43:38;14.60;99.90
3334;DHT22;1679;50.392;8.008;2022-10-31T11:46:13;14.60;99.90
3334;DHT22;1679;50.392;8.008;2022-10-31T11:48:47;14.70;99.90
3334;DHT22;1679;50.392;8.008;2022-10-31T11:51:21;14.80;99.90
3334;DHT22;1679;50.392;8.008;2022-10-31T11:53:52;14.90;99.90
3334;DHT22;1679;50.392;8.008;2022-10-31T11:56:18;14.90;99.90
3334;DHT22;1679;50.392;8.008;2022-10-31T11:58:55;15.00;99.90
3334;DHT22;1679;50.392;8.008;2022-10-31T12:01:26;15.00;99.90
3334;DHT22;1679;50.392;8.008;2022-10-31T12:04:11;15.10;99.90
3334;DHT22;1679;50.392;8.008;2022-10-31T12:06:43;15.10;99.90
3334;DHT22;1679;50.392;8.008;2022-10-31T12:09:29;15.20;99.90
3334;DHT22;1679;50.392;8.008;2022-10-31T12:12:14;15.30;99.90
3334;DHT22;1679;50.392;8.008;2022-10-31T12:17:36;15.40;99.90
3334;DHT22;1679;50.392;8.008;2022-10-31T12:20:32;15.50;99.90
3334;DHT22;1679;50.392;8.008;2022-10-31T12:23:21;15.50;99.90
3334;DHT22;1679;50.392;8.008;2022-10-31T12:29:12;15.60;99.90
3334;DHT22;1679;50.392;8.008;2022-10-31T12:31:59;15.60;99.90
3334;DHT22;1679;50.392;8.008;2022-10-31T12:40:03;15.90;99.90
3334;DHT22;1679;50.392;8.008;2022-10-31T12:45:59;16.00;99.90
3334;DHT22;1679;50.392;8.008;2022-10-31T12:54:40;16.10;99.90
3334;DHT22;1679;50.392;8.008;2022-10-31T13:00:02;16.10;99.90
3334;DHT22;1679;50.392;8.008;2022-10-31T13:02:46;16.10;99.90
3334;DHT22;1679;50.392;8.008;2022-10-31T13:05:39;16.10;99.90
3334;DHT22;1679;50.392;8.008;2022-10-31T13:08:18;16.20;99.90
3334;DHT22;1679;50.392;8.008;2022-10-31T13:10:52;16.10;99.90
3334;DHT22;1679;50.392;8.008;2022-10-31T13:16:19;16.20;99.90
3334;DHT22;1679;50.392;8.008;2022-10-31T13:18:54;16.30;99.90
3334;DHT22;1679;50.392;8.008;2022-10-31T13:21:30;16.30;99.90
3334;DHT22;1679;50.392;8.008;2022-10-31T13:23:59;16.40;99.90
3334;DHT22;1679;50.392;8.008;2022-10-31T13:26:46;16.50;99.90
3334;DHT22;1679;50.392;8.008;2022-10-31T13:29:26;16.60;99.90
3334;DHT22;1679;50.392;8.008;2022-10-31T13:31:53;16.50;99.90
3334;DHT22;1679;50.392;8.008;2022-10-31T13:34:40;16.40;99.90
3334;DHT22;1679;50.392;8.008;2022-10-31T13:45:17;16.40;99.90
3334;DHT22;1679;50.392;8.008;2022-10-31T13:50:39;16.40;99.90
3334;DHT22;1679;50.392;8.008;2022-10-31T13:55:45;16.40;99.90
3334;DHT22;1679;50.392;8.008;2022-10-31T13:58:25;16.30;99.90
3334;DHT22;1679;50.392;8.008;2022-10-31T14:01:21;16.20;99.90
3334;DHT22;1679;50.392;8.008;2022-10-31T14:03:57;16.10;99.90
3334;DHT22;1679;50.392;8.008;2022-10-31T14:06:35;16.10;99.90
3334;DHT22;1679;50.392;8.008;2022-10-31T14:09:02;16.00;99.90
3334;DHT22;1679;50.392;8.008;2022-10-31T14:11:28;16.00;99.90
3334;DHT22;1679;50.392;8.008;2022-10-31T14:13:56;16.00;99.90
3334;DHT22;1679;50.392;8.008;2022-10-31T14:19:12;16.00;99.90
3334;DHT22;1679;50.392;8.008;2022-10-31T14:21:46;15.90;99.90
3334;DHT22;1679;50.392;8.008;2022-10-31T14:26:55;15.80;99.90
3334;DHT22;1679;50.392;8.008;2022-10-31T14:31:52;15.80;99.90
3334;DHT22;1679;50.392;8.008;2022-10-31T14:34:34;15.80;99.90
3334;DHT22;1679;50.392;8.008;2022-10-31T14:40:24;15.80;99.90
3334;DHT22;1679;50.392;8.008;2022-10-31T14:43:17;15.90;99.90
3334;DHT22;1679;50.392;8.008;2022-10-31T14:51:02;15.80;99.90
3334;DHT22;1679;50.392;8.008;2022-10-31T14:53:33;15.80;99.90
3334;DHT22;1679;50.392;8.008;2022-10-31T14:56:00;15.80;99.90
3334;DHT22;1679;50.392;8.008;2022-10-31T14:58:40;15.80;99.90
3334;DHT22;1679;50.392;8.008;2022-10-31T15:01:24;15.70;99.90
3334;DHT22;1679;50.392;8.008;2022-10-31T15:03:55;15.70;99.90
3334;DHT22;1679;50.392;8.008;2022-10-31T15:06:31;15.70;99.90
3334;DHT22;1679;50.392;8.008;2022-10-31T15:09:02;15.60;99.90
3334;DHT22;1679;50.392;8.008;2022-10-31T15:11:28;15.60;99.90
3334;DHT22;1679;50.392;8.008;2022-10-31T15:14:05;15.60;99.90
3334;DHT22;1679;50.392;8.008;2022-10-31T15:16:43;15.60;99.90
3334;DHT22;1679;50.392;8.008;2022-10-31T15:19:13;15.50;99.90
3334;DHT22;1679;50.392;8.008;2022-10-31T15:21:43;15.40;99.90
3334;DHT22;1679;50.392;8.008;2022-10-31T15:24:14;15.40;99.90
3334;DHT22;1679;50.392;8.008;2022-10-31T15:26:45;15.40;99.90
3334;DHT22;1679;50.392;8.008;2022-10-31T15:31:48;15.20;99.90
3334;DHT22;1679;50.392;8.008;2022-10-31T15:34:22;15.10;99.90
3334;DHT22;1679;50.392;8.008;2022-10-31T15:36:50;15.00;99.90
3334;DHT22;1679;50.392;8.008;2022-10-31T15:39:17;14.80;99.90
3334;DHT22;1679;50.392;8.008;2022-10-31T15:41:55;14.70;99.90
3334;DHT22;1679;50.392;8.008;2022-10-31T15:44:33;14.60;99.90
3334;DHT22;1679;50.392;8.008;2022-10-31T15:47:16;14.50;99.90
3334;DHT22;1679;50.392;8.008;2022-10-31T15:49:54;14.50;99.90
3334;DHT22;1679;50.392;8.008;2022-10-31T15:52:34;14.40;99.90
3334;DHT22;1679;50.392;8.008;2022-10-31T15:55:04;14.50;99.90
3334;DHT22;1679;50.392;8.008;2022-10-31T15:57:31;14.40;99.90
3334;DHT22;1679;50.392;8.008;2022-10-31T15:59:56;14.40;99.90
3334;DHT22;1679;50.392;8.008;2022-10-31T16:02:24;14.30;99.90
3334;DHT22;1679;50.392;8.008;2022-10-31T16:05:01;14.30;99.90
3334;DHT22;1679;50.392;8.008;2022-10-31T16:07:28;14.20;99.90
3334;DHT22;1679;50.392;8.008;2022-10-31T16:12:22;14.10;99.90
3334;DHT22;1679;50.392;8.008;2022-10-31T16:14:50;14.10;99.90
3334;DHT22;1679;50.392;8.008;2022-10-31T16:17:19;14.00;99.90
3334;DHT22;1679;50.392;8.008;2022-10-31T16:19:50;14.00;99.90
3334;DHT22;1679;50.392;8.008;2022-10-31T16:22:26;14.10;99.90
3334;DHT22;1679;50.392;8.008;2022-10-31T16:27:33;14.30;99.90
3334;DHT22;1679;50.392;8.008;2022-10-31T16:30:01;14.30;99.90
3334;DHT22;1679;50.392;8.008;2022-10-31T16:34:58;14.30;99.90
3334;DHT22;1679;50.392;8.008;2022-10-31T16:37:24;14.30;99.90
3334;DHT22;1679;50.392;8.008;2022-10-31T16:39:51;14.20;99.90
3334;DHT22;1679;50.392;8.008;2022-10-31T16:42:17;14.10;99.90
3334;DHT22;1679;50.392;8.008;2022-10-31T16:44:44;14.10;99.90
3334;DHT22;1679;50.392;8.008;2022-10-31T16:47:18;14.20;99.90
3334;DHT22;1679;50.392;8.008;2022-10-31T16:49:47;14.10;99.90
3334;DHT22;1679;50.392;8.008;2022-10-31T16:52:13;14.00;99.90
3334;DHT22;1679;50.392;8.008;2022-10-31T16:54:38;13.90;99.90
3334;DHT22;1679;50.392;8.008;2022-10-31T16:57:06;13.80;99.90
3334;DHT22;1679;50.392;8.008;2022-10-31T16:59:35;13.80;99.90
3334;DHT22;1679;50.392;8.008;2022-10-31T17:02:03;13.70;99.90
3334;DHT22;1679;50.392;8.008;2022-10-31T17:04:28;13.70;99.90
3334;DHT22;1679;50.392;8.008;2022-10-31T17:06:54;13.70;99.90
3334;DHT22;1679;50.392;8.008;2022-10-31T17:09:19;13.80;99.90
3334;DHT22;1679;50.392;8.008;2022-10-31T17:11:48;13.80;99.90
3334;DHT22;1679;50.392;8.008;2022-10-31T17:14:16;13.90;99.90
3334;DHT22;1679;50.392;8.008;2022-10-31T17:16:43;13.80;99.90
3334;DHT22;1679;50.392;8.008;2022-10-31T17:19:11;13.70;99.90
3334;DHT22;1679;50.392;8.008;2022-10-31T17:21:37;13.70;99.90
3334;DHT22;1679;50.392;8.008;2022-10-31T17:24:04;13.60;99.90
3334;DHT22;1679;50.392;8.008;2022-10-31T17:26:29;13.60;99.90
3334;DHT22;1679;50.392;8.008;2022-10-31T17:28:55;13.60;99.90
3334;DHT22;1679;50.392;8.008;2022-10-31T17:31:24;13.50;99.90
3334;DHT22;1679;50.392;8.008;2022-10-31T17:33:54;13.40;99.90
3334;DHT22;1679;50.392;8.008;2022-10-31T17:36:20;13.40;99.90
3334;DHT22;1679;50.392;8.008;2022-10-31T17:38:46;13.30;99.90
3334;DHT22;1679;50.392;8.008;2022-10-31T17:41:11;13.20;99.90
3334;DHT22;1679;50.392;8.008;2022-10-31T17:43:37;13.10;99.90
3334;DHT22;1679;50.392;8.008;2022-10-31T17:46:03;13.10;99.90
3334;DHT22;1679;50.392;8.008;2022-10-31T17:48:29;13.00;99.90
3334;DHT22;1679;50.392;8.008;2022-10-31T17:50:59;12.90;99.90
3334;DHT22;1679;50.392;8.008;2022-10-31T17:53:25;12.90;99.90
3334;DHT22;1679;50.392;8.008;2022-10-31T17:55:52;13.00;99.90
3334;DHT22;1679;50.392;8.008;2022-10-31T17:58:17;13.10;99.90
3334;DHT22;1679;50.392;8.008;2022-10-31T18:00:44;13.10;99.90
3334;DHT22;1679;50.392;8.008;2022-10-31T18:03:10;12.90;99.90
3334;DHT22;1679;50.392;8.008;2022-10-31T18:05:35;12.90;99.90
3334;DHT22;1679;50.392;8.008;2022-10-31T18:08:01;12.80;99.90
3334;DHT22;1679;50.392;8.008;2022-10-31T18:10:26;12.70;99.90
3334;DHT22;1679;50.392;8.008;2022-10-31T18:12:52;12.70;99.90
3334;DHT22;1679;50.392;8.008;2022-10-31T18:15:18;12.60;99.90
3334;DHT22;1679;50.392;8.008;2022-10-31T18:17:44;12.50;99.90